< < Back
Terminal Aerodrome Forecast


Current Version              Previous Versions:   1  2  3  4  5  6  7  8  9  

Terminal Aerodrome Forecast

305
FTUS42 KGSP 012300
TAFHKY
TAF
KHKY 012320Z 0200/0224 23003KT P6SM FEW080 SCT200
     FM021000 00000KT 5SM BR FEW120
     FM021300 25003KT P6SM FEW060
     FM021800 24005KT P6SM SCT060 PROB30 0220/0224 5SM TSRA
      BKN040CB=

Latest METAR

095
SAUS70 KWBC 021200 RRM
MTRHKY
METAR KHKY 021153Z 00000KT 10SM CLR 22/20 A3011 RMK AO2 SLP172 T02170200
10228 20206


USA.gov is the U.S. government's official web portal to all federal, state and local government web resources and services.